METAR Data
IDs: Format: Raw Decoded Include TAF

Data at: 1217 UTC 24 Jan 2021

KHWD 241154Z AUTO 14007KT 10SM OVC015 08/05 A2994 RMK AO2 SLP150 T00780050 10078 20039 58010
No TAF found for KHWD

KBFL 241154Z AUTO 00000KT 7SM CLR 05/03 A2995 RMK AO2 SLP141 70002 T00500028 10078 20050 58005 TSNO

KBFL 241120Z 2412/2512 VRB03KT P6SM OVC040
  TEMPO 2505/2509 -RA BKN035
  FM250900 30008KT P6SM -SHRA BKN035


KIFP 241155Z AUTO 21003KT 10SM FEW060 10/03 A2981 RMK AO2

KIFP 241200Z 2412/2512 04006KT P6SM VCSH BKN060
  FM241800 VRB05KT P6SM SCT070
  FM242000 19012KT P6SM FEW070
  FM250500 17010KT P6SM BKN250
  FM250900 17009KT P6SM BKN060
  PROB30 2511/2512 4SM -SHRA OVC030